Time;durP1;ratioP1;P1;durP2;ratioP2;P2;SDS_P1;SDS_P2;PMS_P1;PMS_P2;Temp;Humidity;BMP_temperature;BMP_pressure;BME280_temperature;BME280_humidity;BME280_pressure;Samples;Min_cycle;Max_cycle;Signal;HPM_P1;HPM_P2
2022/03/26 00:02:19;;;;;;;27.07;10.33;;;;;;;5.02;78.78;102400.22;5968000;28;20066;-73
2022/03/26 00:05:15;;;;;;;25.10;9.03;;;;;;;5.69;77.09;102401.41;5976016;28;20809;-73
2022/03/26 00:08:12;;;;;;;28.90;11.23;;;;;;;5.77;75.66;102394.00;5979121;29;20105;-72
2022/03/26 00:11:07;;;;;;;27.55;10.60;;;;;;;5.61;75.44;102402.69;5966770;29;20043;-70
2022/03/26 00:14:03;;;;;;;24.40;9.73;;;;;;;5.69;76.35;102405.81;5978946;29;20071;-70
2022/03/26 00:17:00;;;;;;;25.33;10.35;;;;;;;5.67;76.47;102397.16;5970467;28;20501;-70
2022/03/26 00:19:55;;;;;;;26.67;10.07;;;;;;;5.41;76.92;102398.38;5996009;28;20047;-70
2022/03/26 00:22:50;;;;;;;28.50;9.87;;;;;;;5.39;76.40;102392.31;5975700;29;20473;-71
2022/03/26 00:25:45;;;;;;;23.97;9.43;;;;;;;5.48;76.64;102391.91;5981609;28;20054;-71
2022/03/26 00:28:41;;;;;;;27.33;10.43;;;;;;;5.17;76.92;102392.47;5989892;28;20035;-69
2022/03/26 00:31:37;;;;;;;26.10;9.50;;;;;;;5.25;77.17;102394.75;5977484;29;20160;-71
2022/03/26 00:34:33;;;;;;;26.15;9.38;;;;;;;5.17;76.87;102391.59;5973210;29;20398;-73
2022/03/26 00:37:28;;;;;;;25.73;9.68;;;;;;;5.40;76.94;102383.53;5981892;29;20082;-72
2022/03/26 00:40:24;;;;;;;27.37;10.23;;;;;;;5.30;76.56;102385.72;5983243;28;20035;-72
2022/03/26 00:43:19;;;;;;;26.00;9.67;;;;;;;5.49;76.77;102387.50;5991548;28;20039;-71
2022/03/26 00:46:14;;;;;;;25.83;8.80;;;;;;;5.65;76.33;102380.59;5982730;29;20043;-73
2022/03/26 00:49:10;;;;;;;25.42;10.13;;;;;;;5.56;75.19;102387.13;5977253;28;20035;-72
2022/03/26 00:52:05;;;;;;;26.83;9.40;;;;;;;5.27;76.05;102385.03;6005577;28;20458;-70
2022/03/26 00:55:01;;;;;;;26.63;10.23;;;;;;;4.93;78.06;102374.31;5990358;28;20474;-72
2022/03/26 00:57:56;;;;;;;27.27;8.93;;;;;;;5.10;78.02;102377.06;5996815;28;20063;-73
2022/03/26 01:00:52;;;;;;;25.92;9.40;;;;;;;4.94;77.14;102376.03;5979658;29;20498;-72
2022/03/26 01:03:47;;;;;;;28.92;9.07;;;;;;;4.98;78.20;102385.47;5976964;29;20031;-74
2022/03/26 01:06:42;;;;;;;25.30;10.07;;;;;;;4.74;78.34;102375.16;5975051;28;20387;-69
2022/03/26 01:09:38;;;;;;;25.23;9.20;;;;;;;4.62;78.54;102378.31;5977428;29;20279;-72
2022/03/26 01:12:33;;;;;;;25.08;8.63;;;;;;;4.60;79.23;102384.56;5982576;28;20039;-72
2022/03/26 01:15:29;;;;;;;27.63;9.10;;;;;;;4.50;79.56;102378.00;5977046;29;20067;-73
2022/03/26 01:18:24;;;;;;;24.77;9.05;;;;;;;4.51;79.32;102377.91;5980587;29;20110;-73
2022/03/26 01:21:20;;;;;;;25.67;9.17;;;;;;;4.44;80.38;102379.13;5981567;29;20035;-73
2022/03/26 01:24:15;;;;;;;28.60;10.00;;;;;;;4.28;80.49;102382.47;5979685;28;20042;-71
2022/03/26 01:27:10;;;;;;;26.93;9.97;;;;;;;4.25;80.48;102379.97;5977296;28;20035;-73
2022/03/26 01:30:06;;;;;;;27.00;8.70;;;;;;;4.06;80.55;102375.47;5981269;29;20051;-73
2022/03/26 01:33:02;;;;;;;27.00;9.05;;;;;;;4.04;81.33;102376.47;5979712;29;20086;-71
2022/03/26 01:35:57;;;;;;;21.57;8.47;;;;;;;3.95;81.85;102374.22;5981084;28;20079;-70
2022/03/26 01:38:52;;;;;;;27.13;8.10;;;;;;;3.93;82.48;102373.44;5972156;29;20019;-70
2022/03/26 01:41:48;;;;;;;25.33;9.53;;;;;;;3.90;82.01;102369.16;5979599;28;20051;-72
2022/03/26 01:44:43;;;;;;;30.67;8.93;;;;;;;3.91;81.69;102367.41;5998296;28;20042;-70
2022/03/26 01:47:39;;;;;;;26.00;9.40;;;;;;;3.88;82.21;102367.53;5980093;29;20291;-70
2022/03/26 01:50:34;;;;;;;29.25;9.65;;;;;;;3.80;81.90;102369.59;5982915;28;20043;-71
2022/03/26 01:53:29;;;;;;;36.03;9.30;;;;;;;3.74;83.01;102375.09;5972787;29;20035;-72
2022/03/26 01:56:25;;;;;;;29.53;9.33;;;;;;;3.71;82.72;102375.22;5977164;29;20031;-71
2022/03/26 01:59:23;;;;;;;24.17;10.02;;;;;;;3.68;83.21;102370.09;5977731;29;20460;-70
2022/03/26 02:02:18;;;;;;;34.22;11.02;;;;;;;3.70;83.54;102366.47;5975543;28;20517;-73
2022/03/26 02:05:16;;;;;;;34.73;9.83;;;;;;;3.78;82.39;102368.81;5986216;28;20039;-70
2022/03/26 02:08:12;;;;;;;30.65;10.75;;;;;;;3.73;82.58;102371.59;5980571;29;20034;-71
2022/03/26 02:11:07;;;;;;;31.10;9.95;;;;;;;3.65;83.74;102370.19;5973305;29;20043;-72
2022/03/26 02:14:03;;;;;;;32.30;11.65;;;;;;;3.63;83.30;102372.03;5978920;29;20027;-72
2022/03/26 02:16:59;;;;;;;29.08;11.27;;;;;;;3.70;83.11;102370.88;5981145;29;20029;-70
2022/03/26 02:19:55;;;;;;;26.53;10.07;;;;;;;3.78;82.98;102369.66;5977067;28;20035;-69
2022/03/26 02:22:50;;;;;;;35.10;11.30;;;;;;;3.74;82.97;102361.97;5979937;29;20378;-72
2022/03/26 02:25:45;;;;;;;30.13;10.80;;;;;;;3.69;83.63;102369.19;5963331;29;20044;-72
2022/03/26 02:28:41;;;;;;;30.80;10.55;;;;;;;3.97;83.74;102369.75;5976136;29;20032;-72
2022/03/26 02:31:37;;;;;;;30.55;10.30;;;;;;;3.86;82.41;102372.81;5979418;29;20130;-71
2022/03/26 02:34:33;;;;;;;33.58;10.00;;;;;;;3.70;83.32;102369.09;5971579;28;20122;-70
2022/03/26 02:37:29;;;;;;;30.17;10.75;;;;;;;3.55;83.56;102370.59;5988810;28;20097;-70
2022/03/26 02:40:25;;;;;;;31.15;10.05;;;;;;;3.48;84.44;102376.97;5977116;29;20043;-70
2022/03/26 02:43:20;;;;;;;33.63;10.77;;;;;;;3.55;84.40;102369.72;5968422;28;20086;-71
2022/03/26 02:46:15;;;;;;;35.70;10.33;;;;;;;3.82;83.46;102367.75;5970872;28;20118;-71
2022/03/26 02:49:12;;;;;;;27.23;10.03;;;;;;;3.78;83.10;102366.19;5976461;28;20114;-71
2022/03/26 02:52:07;;;;;;;29.95;10.65;;;;;;;3.78;83.86;102363.56;5979776;29;20263;-68
2022/03/26 02:55:04;;;;;;;30.90;10.82;;;;;;;3.64;82.93;102363.25;5974022;29;20035;-71
2022/03/26 02:58:00;;;;;;;31.02;11.25;;;;;;;3.57;84.06;102353.00;5986261;28;20037;-70
2022/03/26 03:00:56;;;;;;;34.75;11.40;;;;;;;3.61;83.72;102349.34;5984835;28;20031;-73
2022/03/26 03:03:52;;;;;;;37.28;10.93;;;;;;;3.58;84.15;102359.13;5978815;28;20071;-69
2022/03/26 03:06:48;;;;;;;27.50;10.57;;;;;;;3.66;84.23;102356.19;5979658;28;20053;-70
2022/03/26 03:09:43;;;;;;;31.73;10.93;;;;;;;3.78;83.40;102350.44;5977701;28;20046;-70
2022/03/26 03:12:39;;;;;;;31.57;10.03;;;;;;;3.92;83.52;102330.59;5971550;29;20493;-71
2022/03/26 03:15:34;;;;;;;34.43;10.47;;;;;;;4.11;82.48;102335.91;5983339;28;20045;-70
2022/03/26 03:18:29;;;;;;;34.13;10.90;;;;;;;3.87;82.62;102340.41;5996700;28;20122;-69
2022/03/26 03:21:25;;;;;;;27.90;9.57;;;;;;;3.68;83.27;102344.72;5970040;29;20047;-70
2022/03/26 03:24:21;;;;;;;34.33;11.10;;;;;;;3.58;82.57;102333.75;5988600;28;20597;-69
2022/03/26 03:27:16;;;;;;;34.28;10.70;;;;;;;3.46;83.76;102338.59;5982815;28;20032;-69
2022/03/26 03:30:12;;;;;;;33.03;11.63;;;;;;;3.42;84.55;102330.03;5974035;28;20046;-72
2022/03/26 03:33:08;;;;;;;32.08;10.57;;;;;;;3.44;84.85;102341.31;5970544;29;20142;-71
2022/03/26 03:36:05;;;;;;;36.97;11.87;;;;;;;3.64;84.94;102334.41;5967170;29;20039;-70
2022/03/26 03:39:00;;;;;;;34.88;11.70;;;;;;;3.75;83.89;102340.09;5974890;29;20282;-71
2022/03/26 03:41:55;;;;;;;39.80;12.33;;;;;;;3.86;83.46;102338.69;5975844;29;20045;-71
2022/03/26 03:44:50;;;;;;;39.57;12.00;;;;;;;3.94;82.90;102338.41;5983306;28;20128;-70
2022/03/26 03:47:46;;;;;;;31.87;11.60;;;;;;;3.93;83.16;102328.81;6002358;28;20043;-68
2022/03/26 03:50:42;;;;;;;34.22;11.20;;;;;;;3.86;82.96;102327.38;5965090;28;20038;-68
2022/03/26 03:53:37;;;;;;;37.17;12.32;;;;;;;3.90;82.34;102324.56;5975919;29;20035;-69
2022/03/26 03:56:33;;;;;;;36.20;13.00;;;;;;;3.92;82.81;102327.09;5978675;29;20487;-72
2022/03/26 03:59:28;;;;;;;33.90;12.00;;;;;;;3.92;82.66;102319.22;5977612;28;20275;-69
2022/03/26 04:02:24;;;;;;;41.03;13.13;;;;;;;3.93;82.62;102313.06;5999474;28;20035;-73
2022/03/26 04:05:20;;;;;;;36.95;12.75;;;;;;;4.01;83.02;102311.84;5982483;28;20499;-71
2022/03/26 04:08:16;;;;;;;35.95;12.70;;;;;;;4.05;82.54;102300.28;5979428;29;20395;-71
2022/03/26 04:11:11;;;;;;;37.17;12.55;;;;;;;4.03;82.07;102309.13;5974225;28;20047;-71
2022/03/26 04:14:06;;;;;;;40.65;12.15;;;;;;;3.85;82.55;102309.91;5982165;29;20532;-70
2022/03/26 04:17:02;;;;;;;33.40;13.18;;;;;;;3.83;82.73;102306.50;5996093;28;20039;-72
2022/03/26 04:19:57;;;;;;;37.00;12.02;;;;;;;3.75;83.39;102324.34;5991060;28;20031;-71
2022/03/26 04:22:53;;;;;;;39.97;12.37;;;;;;;3.63;83.01;102314.34;5979046;29;20074;-71
2022/03/26 04:25:48;;;;;;;35.53;13.30;;;;;;;3.56;83.05;102309.34;5980390;29;20038;-71
2022/03/26 04:28:43;;;;;;;37.57;13.07;;;;;;;3.49;83.70;102313.13;5987627;28;20497;-73
2022/03/26 04:31:38;;;;;;;31.70;11.73;;;;;;;3.46;83.71;102323.75;5988184;28;20062;-72
2022/03/26 04:34:35;;;;;;;41.60;13.70;;;;;;;3.39;83.81;102337.16;5973462;28;20048;-73
2022/03/26 04:37:30;;;;;;;42.60;13.80;;;;;;;3.42;84.47;102348.38;5981128;28;20046;-71
2022/03/26 04:40:26;;;;;;;38.83;12.68;;;;;;;3.70;83.47;102349.88;5979631;28;20063;-72
2022/03/26 04:43:23;;;;;;;40.58;13.40;;;;;;;3.89;84.07;102348.22;5981556;29;20110;-71
2022/03/26 04:46:19;;;;;;;39.50;13.35;;;;;;;3.63;82.99;102348.44;5983862;28;20035;-71
2022/03/26 04:49:14;;;;;;;39.83;13.73;;;;;;;3.65;83.97;102343.97;5977557;28;20041;-72
2022/03/26 04:52:09;;;;;;;38.10;11.80;;;;;;;3.30;83.37;102354.09;5980488;28;20046;-70
2022/03/26 04:55:08;;;;;;;42.57;13.63;;;;;;;3.35;83.56;102361.78;5985959;28;20392;-71
2022/03/26 04:58:03;;;;;;;33.97;12.07;;;;;;;3.52;83.63;102357.59;5980972;29;20043;-71
2022/03/26 05:01:00;;;;;;;34.60;12.33;;;;;;;3.58;83.90;102362.59;5981936;29;20043;-72
2022/03/26 05:03:55;;;;;;;35.53;12.02;;;;;;;3.60;83.03;102368.63;5945814;28;20047;-71
2022/03/26 05:06:50;;;;;;;38.53;12.40;;;;;;;3.64;82.49;102371.13;5983065;28;20409;-72
2022/03/26 05:09:46;;;;;;;38.10;12.73;;;;;;;3.74;82.05;102367.22;5988654;28;20035;-72
2022/03/26 05:12:42;;;;;;;45.20;14.53;;;;;;;3.50;82.98;102376.94;5973753;28;20031;-72
2022/03/26 05:15:37;;;;;;;31.33;11.00;;;;;;;3.69;82.52;102371.81;5978599;29;20031;-70
2022/03/26 05:18:33;;;;;;;37.30;13.47;;;;;;;3.72;82.00;102367.28;5993848;28;20398;-72
2022/03/26 05:21:29;;;;;;;33.90;12.32;;;;;;;3.78;82.37;102369.66;5981320;29;20108;-73
2022/03/26 05:24:24;;;;;;;43.57;13.03;;;;;;;3.64;82.11;102368.50;5980953;28;20031;-69
2022/03/26 05:27:20;;;;;;;39.85;12.65;;;;;;;3.43;82.62;102378.06;5987387;28;20035;-70
2022/03/26 05:30:16;;;;;;;45.03;14.18;;;;;;;3.32;83.46;102370.59;5987456;28;20046;-71
2022/03/26 05:33:11;;;;;;;40.80;14.30;;;;;;;3.26;83.46;102370.00;5972070;28;20040;-71
2022/03/26 05:36:07;;;;;;;44.53;12.40;;;;;;;3.20;84.19;102373.72;5973312;29;20483;-72
2022/03/26 05:39:02;;;;;;;42.42;13.40;;;;;;;3.25;84.30;102377.00;5978210;29;20541;-70
2022/03/26 05:41:58;;;;;;;36.07;13.67;;;;;;;3.49;84.04;102386.56;5971356;29;20044;-70
2022/03/26 05:44:53;;;;;;;42.13;14.70;;;;;;;3.54;83.28;102381.97;5979624;28;20047;-70
2022/03/26 05:47:51;;;;;;;46.53;14.20;;;;;;;3.98;83.29;102374.09;5983544;28;20037;-71
2022/03/26 05:50:47;;;;;;;50.00;15.02;;;;;;;4.54;81.40;102380.41;5972227;29;20488;-70
2022/03/26 05:53:42;;;;;;;50.85;14.48;;;;;;;4.34;81.07;102376.94;5972648;29;20038;-71
2022/03/26 05:56:38;;;;;;;42.63;15.97;;;;;;;4.20;80.89;102380.16;5976383;29;20046;-70
2022/03/26 05:59:33;;;;;;;54.50;17.55;;;;;;;4.36;80.85;102385.59;5979495;28;20050;-70
2022/03/26 06:02:28;;;;;;;47.22;15.93;;;;;;;4.49;80.36;102385.03;5973904;29;20386;-71
2022/03/26 06:05:24;;;;;;;50.60;14.10;;;;;;;4.77;80.23;102384.69;5980696;28;20428;-70
2022/03/26 06:08:19;;;;;;;45.10;16.03;;;;;;;5.11;78.47;102384.03;5977875;29;20419;-70
2022/03/26 06:11:14;;;;;;;52.60;17.97;;;;;;;5.24;77.08;102391.28;5977870;29;20046;-72
2022/03/26 06:14:09;;;;;;;46.10;15.77;;;;;;;5.28;76.65;102390.19;5979891;29;20034;-72
2022/03/26 06:17:05;;;;;;;48.90;16.80;;;;;;;5.34;76.58;102400.44;5968257;28;20041;-73
2022/03/26 06:20:00;;;;;;;47.42;16.95;;;;;;;5.56;76.70;102399.44;5984723;28;20038;-72
2022/03/26 06:22:56;;;;;;;49.67;16.42;;;;;;;5.89;75.58;102403.97;5975967;28;20039;-71
2022/03/26 06:25:51;;;;;;;48.80;16.00;;;;;;;5.94;75.55;102401.97;5976418;28;20082;-72
2022/03/26 06:28:46;;;;;;;49.67;16.87;;;;;;;5.77;75.16;102401.91;5984866;28;20282;-69
2022/03/26 06:31:42;;;;;;;52.17;17.60;;;;;;;6.21;74.41;102404.16;5981143;28;20031;-72
2022/03/26 06:34:37;;;;;;;54.53;17.65;;;;;;;6.20;73.90;102412.97;5969784;29;20027;-69
2022/03/26 06:37:32;;;;;;;59.07;17.70;;;;;;;6.30;74.31;102408.97;5980672;29;20031;-70
2022/03/26 06:40:27;;;;;;;54.73;17.47;;;;;;;6.24;73.41;102414.56;5967957;29;20767;-71
2022/03/26 06:43:23;;;;;;;55.10;18.67;;;;;;;6.63;73.57;102412.53;5980855;29;20459;-70
2022/03/26 06:46:18;;;;;;;52.63;16.73;;;;;;;6.75;72.54;102411.91;5980323;28;20523;-71
2022/03/26 06:49:13;;;;;;;57.53;18.95;;;;;;;7.20;71.76;102413.91;5978225;29;20050;-69
2022/03/26 06:52:09;;;;;;;51.80;18.03;;;;;;;7.22;71.10;102406.75;5979670;28;20035;-72
2022/03/26 06:55:05;;;;;;;50.63;18.30;;;;;;;7.28;71.20;102406.41;5980377;28;20075;-71
2022/03/26 06:58:02;;;;;;;46.40;17.67;;;;;;;7.57;69.99;102407.44;5978629;29;20470;-70
2022/03/26 07:00:58;;;;;;;51.80;18.42;;;;;;;7.97;69.79;102403.41;5971324;28;20042;-69
2022/03/26 07:03:54;;;;;;;50.38;18.70;;;;;;;8.09;69.13;102397.44;5977884;28;20034;-69
2022/03/26 07:06:49;;;;;;;57.05;19.73;;;;;;;8.07;68.27;102392.22;5975042;28;20042;-73
2022/03/26 07:09:44;;;;;;;59.07;19.67;;;;;;;8.08;68.92;102398.34;5967233;29;20367;-71
2022/03/26 07:12:40;;;;;;;52.00;17.60;;;;;;;8.13;68.03;102409.50;5977465;29;20330;-71
2022/03/26 07:15:35;;;;;;;51.55;18.33;;;;;;;8.29;67.11;102400.63;5977818;28;20126;-72
2022/03/26 07:18:30;;;;;;;53.50;17.73;;;;;;;8.32;67.42;102403.09;5991994;28;20031;-70
2022/03/26 07:21:26;;;;;;;59.60;18.83;;;;;;;8.35;66.76;102389.72;5970387;29;20050;-71
2022/03/26 07:24:21;;;;;;;45.83;16.63;;;;;;;8.61;65.92;102395.25;5968606;28;20027;-70
2022/03/26 07:27:16;;;;;;;46.57;17.67;;;;;;;8.62;65.97;102407.50;5978403;29;20031;-70
2022/03/26 07:30:11;;;;;;;55.43;17.80;;;;;;;8.63;66.20;102407.44;5976381;29;20443;-72
2022/03/26 07:33:07;;;;;;;60.27;18.37;;;;;;;8.89;66.14;102416.44;5978837;28;20046;-73
2022/03/26 07:36:02;;;;;;;53.67;17.47;;;;;;;9.20;65.21;102415.41;5976041;28;20054;-72
2022/03/26 07:38:58;;;;;;;57.60;19.13;;;;;;;9.34;65.25;102410.97;5998111;28;20321;-71
2022/03/26 07:41:54;;;;;;;51.78;18.67;;;;;;;9.52;63.96;102404.50;5977057;28;20043;-72
2022/03/26 07:44:49;;;;;;;51.17;17.00;;;;;;;9.63;62.84;102405.59;5977332;29;20039;-68
2022/03/26 07:47:44;;;;;;;49.67;17.43;;;;;;;9.76;62.61;102406.50;5963649;28;20043;-69
2022/03/26 07:50:39;;;;;;;48.23;17.60;;;;;;;9.95;62.15;102402.56;5977914;28;20337;-71
2022/03/26 07:53:35;;;;;;;51.93;17.30;;;;;;;10.15;61.04;102403.94;5972863;29;20035;-70
2022/03/26 07:56:30;;;;;;;50.20;17.80;;;;;;;10.30;61.91;102407.38;5977427;28;20519;-70
2022/03/26 07:59:25;;;;;;;44.40;15.97;;;;;;;10.50;61.02;102410.38;5978849;29;20033;-72
2022/03/26 08:02:21;;;;;;;46.03;15.87;;;;;;;10.82;60.16;102404.69;5977952;28;20027;-71
2022/03/26 08:05:16;;;;;;;44.97;16.37;;;;;;;10.87;59.67;102407.88;5977979;28;20086;-70
2022/03/26 08:08:12;;;;;;;49.08;16.40;;;;;;;11.03;59.54;102419.13;5975523;29;20027;-71
2022/03/26 08:11:07;;;;;;;44.75;17.38;;;;;;;11.00;59.46;102409.56;5987187;28;20039;-70
2022/03/26 08:14:02;;;;;;;46.42;16.85;;;;;;;11.11;59.58;102408.81;5978941;29;20070;-72
2022/03/26 08:16:58;;;;;;;48.10;16.87;;;;;;;11.34;59.10;102408.00;5993623;28;20090;-71
2022/03/26 08:19:53;;;;;;;45.77;16.00;;;;;;;11.49;58.78;102414.91;5983696;28;20278;-71
2022/03/26 08:22:48;;;;;;;45.17;17.80;;;;;;;11.65;58.27;102418.16;5977166;28;20051;-69
2022/03/26 08:28:59;;;;;;;50.83;16.63;;;;;;;11.96;57.45;102421.28;5975389;28;20031;-71
2022/03/26 08:31:54;;;;;;;47.45;16.75;;;;;;;12.09;57.82;102422.06;5971339;29;20472;-70
2022/03/26 08:34:49;;;;;;;44.17;16.77;;;;;;;12.04;56.80;102419.72;5984284;28;20073;-69
2022/03/26 08:37:45;;;;;;;42.85;16.17;;;;;;;12.20;57.22;102417.59;5979760;28;20094;-71
2022/03/26 08:40:40;;;;;;;44.00;16.07;;;;;;;12.23;55.92;102414.72;5976346;28;20088;-69
2022/03/26 08:43:35;;;;;;;41.93;15.33;;;;;;;12.18;56.43;102421.34;5976507;29;20438;-72
2022/03/26 08:46:31;;;;;;;38.27;15.00;;;;;;;12.52;55.68;102418.72;5982012;28;20126;-69
2022/03/26 08:49:28;;;;;;;38.43;14.27;;;;;;;12.70;54.53;102419.09;5979048;29;20031;-71
2022/03/26 08:52:23;;;;;;;33.08;14.40;;;;;;;12.79;54.49;102412.22;5983599;28;20054;-69
2022/03/26 08:55:19;;;;;;;34.58;13.23;;;;;;;12.94;54.46;102411.88;5978999;28;20399;-70
2022/03/26 08:58:14;;;;;;;36.33;13.73;;;;;;;12.89;54.34;102416.72;5980626;29;20050;-69
2022/03/26 09:01:11;;;;;;;38.17;13.10;;;;;;;12.98;53.49;102418.69;5975934;29;20035;-71
2022/03/26 09:04:06;;;;;;;32.42;13.15;;;;;;;13.07;53.64;102412.66;5980127;28;20113;-69
2022/03/26 09:07:01;;;;;;;35.83;13.40;;;;;;;13.19;53.74;102410.00;5978986;28;20085;-71
2022/03/26 09:09:57;;;;;;;35.70;12.57;;;;;;;13.32;53.68;102408.91;5984838;28;20361;-70
2022/03/26 09:12:52;;;;;;;34.83;14.13;;;;;;;13.52;53.56;102402.84;5984226;28;20042;-68
2022/03/26 09:15:47;;;;;;;33.53;11.93;;;;;;;13.33;53.89;102409.75;5985985;28;20031;-71
2022/03/26 09:18:43;;;;;;;32.10;12.83;;;;;;;13.35;54.05;102399.81;6002359;28;20115;-71
2022/03/26 09:21:38;;;;;;;36.63;12.67;;;;;;;13.38;54.42;102394.22;6003003;28;20286;-71
2022/03/26 09:24:33;;;;;;;34.87;12.57;;;;;;;13.61;53.49;102390.59;5984577;28;20509;-68
2022/03/26 09:27:28;;;;;;;31.47;12.63;;;;;;;13.83;54.00;102379.88;6004366;28;20030;-71
2022/03/26 09:30:24;;;;;;;29.40;11.50;;;;;;;14.00;53.68;102387.28;6004915;28;20031;-68
2022/03/26 09:33:19;;;;;;;30.80;12.05;;;;;;;14.14;52.96;102384.34;6005234;28;20166;-68
2022/03/26 09:36:15;;;;;;;32.00;12.20;;;;;;;14.24;52.52;102379.09;5994422;28;20498;-69
2022/03/26 09:39:10;;;;;;;26.13;10.63;;;;;;;14.19;52.90;102381.28;6005321;28;20101;-70
2022/03/26 09:42:07;;;;;;;28.90;9.83;;;;;;;14.35;53.03;102381.72;6004326;28;20257;-71
2022/03/26 09:45:05;;;;;;;26.13;11.07;;;;;;;14.24;53.05;102379.91;6005516;28;20513;-68
2022/03/26 09:48:01;;;;;;;23.85;10.63;;;;;;;14.21;53.27;102372.16;6004869;28;20561;-71
2022/03/26 09:50:56;;;;;;;24.80;10.73;;;;;;;14.42;52.70;102377.56;5969134;29;20071;-70
2022/03/26 09:53:52;;;;;;;22.80;10.93;;;;;;;14.25;52.57;102364.75;5981483;29;20032;-69
2022/03/26 09:56:48;;;;;;;24.58;10.30;;;;;;;14.51;52.86;102375.94;5980875;28;20085;-69
2022/03/26 09:59:43;;;;;;;23.05;10.25;;;;;;;14.57;52.22;102381.59;5981503;29;20043;-70
2022/03/26 10:02:39;;;;;;;28.33;11.67;;;;;;;14.56;52.59;102376.38;5980115;29;20067;-70
2022/03/26 10:05:34;;;;;;;24.93;10.77;;;;;;;14.71;51.79;102367.03;5981269;28;20027;-69
2022/03/26 10:08:34;;;;;;;25.92;11.25;;;;;;;14.97;52.05;102378.16;5981046;29;20383;-70
2022/03/26 10:11:33;;;;;;;24.58;11.15;;;;;;;14.92;51.17;102378.53;5980742;29;20087;-69
2022/03/26 10:14:40;;;;;;;30.65;11.57;;;;;;;14.78;51.19;102363.72;5981237;29;20046;-69
2022/03/26 10:17:37;;;;;;;26.73;11.27;;;;;;;14.90;51.36;102372.50;5974144;29;20130;-69
2022/03/26 10:20:32;;;;;;;23.52;11.13;;;;;;;15.00;51.15;102369.88;5962199;29;21314;-69
2022/03/26 10:23:28;;;;;;;24.00;10.03;;;;;;;15.00;50.84;102364.53;5997605;28;20045;-70
2022/03/26 10:26:25;;;;;;;23.10;10.00;;;;;;;15.23;51.15;102369.53;6004212;28;20533;-71
2022/03/26 10:29:20;;;;;;;24.30;9.95;;;;;;;15.39;50.18;102355.66;5999913;28;20062;-69
2022/03/26 10:32:39;;;;;;;23.87;9.93;;;;;;;15.19;50.34;102356.59;6000812;28;20041;-71
2022/03/26 10:35:34;;;;;;;25.92;10.23;;;;;;;15.32;50.24;102352.69;6002874;28;20355;-71
2022/03/26 10:38:32;;;;;;;24.80;9.95;;;;;;;15.60;49.91;102350.25;6003733;28;20045;-71
2022/03/26 10:41:30;;;;;;;22.33;9.90;;;;;;;15.55;48.20;102345.31;6003332;28;20031;-68
2022/03/26 10:44:29;;;;;;;22.25;8.80;;;;;;;15.63;49.51;102342.78;5988724;28;20692;-71
2022/03/26 10:47:29;;;;;;;22.75;9.30;;;;;;;15.67;49.07;102344.22;5980360;29;20057;-70
2022/03/26 10:50:34;;;;;;;22.10;9.95;;;;;;;15.53;48.52;102339.25;5979668;29;20118;-72
2022/03/26 10:53:37;;;;;;;24.77;10.63;;;;;;;15.58;49.52;102341.50;5980559;29;20035;-71
2022/03/26 10:56:33;;;;;;;21.80;9.48;;;;;;;15.53;49.76;102338.41;5976767;29;20495;-72
2022/03/26 10:59:30;;;;;;;23.02;9.15;;;;;;;15.68;48.92;102331.69;5979472;28;20111;-69
2022/03/26 11:02:25;;;;;;;19.70;8.88;;;;;;;15.88;48.32;102333.38;6002892;28;20473;-71
2022/03/26 11:05:21;;;;;;;17.67;7.87;;;;;;;16.04;47.44;102333.66;5993386;28;20074;-72
2022/03/26 11:08:16;;;;;;;18.38;8.45;;;;;;;16.23;46.24;102330.97;5979257;28;20034;-71
2022/03/26 11:11:12;;;;;;;15.75;6.90;;;;;;;16.38;44.98;102326.88;5983994;28;20046;-71
2022/03/26 11:14:13;;;;;;;19.70;8.23;;;;;;;16.30;45.54;102324.06;5979978;29;20031;-72
2022/03/26 11:17:11;;;;;;;19.85;8.40;;;;;;;16.32;46.21;102338.13;5962845;29;20438;-71
2022/03/26 11:20:21;;;;;;;19.55;8.52;;;;;;;16.21;46.38;102334.75;5978987;29;20066;-72
2022/03/26 11:23:29;;;;;;;23.85;9.82;;;;;;;16.43;46.69;102332.63;5961094;29;20031;-70
2022/03/26 11:26:48;;;;;;;20.70;8.32;;;;;;;16.49;45.63;102336.56;5970386;29;20059;-69
2022/03/26 11:30:03;;;;;;;19.10;7.97;;;;;;;16.56;44.31;102335.88;5978357;29;20348;-73
2022/03/26 11:33:11;;;;;;;19.10;7.32;;;;;;;16.31;44.34;102320.38;5962559;29;20031;-70
2022/03/26 11:36:08;;;;;;;16.95;7.07;;;;;;;16.57;44.12;102326.84;5979446;29;20046;-73
2022/03/26 11:39:12;;;;;;;16.80;7.82;;;;;;;16.84;44.11;102318.00;5978923;28;20043;-73
2022/03/26 11:42:07;;;;;;;15.30;6.57;;;;;;;16.82;43.90;102324.50;5978912;29;20058;-71
2022/03/26 11:51:57;;;;;;;16.70;7.68;;;;;;;16.89;43.99;102314.88;5985890;28;20034;-72
2022/03/26 11:55:10;;;;;;;18.98;7.97;;;;;;;16.60;44.75;102304.28;6002441;28;20041;-71
2022/03/26 11:58:26;;;;;;;18.55;8.00;;;;;;;16.38;45.47;102300.09;6002575;28;20371;-71
2022/03/26 12:01:21;;;;;;;18.02;7.80;;;;;;;16.54;45.41;102305.72;6001802;28;20075;-70
2022/03/26 12:04:18;;;;;;;16.33;7.18;;;;;;;16.55;45.33;102296.66;5995832;28;20497;-70
2022/03/26 12:07:15;;;;;;;19.35;7.93;;;;;;;16.37;46.79;102298.38;5979123;29;20035;-70
2022/03/26 12:10:11;;;;;;;19.88;8.57;;;;;;;16.69;45.88;102294.53;5977192;29;20055;-73
2022/03/26 12:13:08;;;;;;;19.63;8.68;;;;;;;16.77;45.70;102284.75;5979286;29;20035;-73
2022/03/26 12:16:05;;;;;;;19.42;7.97;;;;;;;16.95;44.72;102287.50;5978897;29;20050;-73
2022/03/26 12:19:00;;;;;;;20.27;8.48;;;;;;;16.85;45.53;102292.06;5978932;28;20051;-71
2022/03/26 12:21:55;;;;;;;17.77;8.05;;;;;;;16.90;46.25;102287.09;5981199;29;20394;-71
2022/03/26 12:24:52;;;;;;;19.13;9.13;;;;;;;16.84;46.65;102296.56;5983687;29;20048;-71
2022/03/26 12:27:47;;;;;;;18.75;8.65;;;;;;;16.59;46.40;102297.22;5983744;29;20363;-71
2022/03/26 12:30:45;;;;;;;19.37;8.07;;;;;;;16.41;47.02;102294.44;5982608;29;20047;-72
2022/03/26 12:33:50;;;;;;;22.17;9.13;;;;;;;16.48;46.99;102289.34;5983539;29;20031;-72
2022/03/26 12:36:46;;;;;;;21.67;8.50;;;;;;;16.54;46.68;102283.44;5984814;28;20681;-71
2022/03/26 12:39:44;;;;;;;19.23;8.23;;;;;;;16.83;46.25;102275.25;6006680;28;20168;-71
2022/03/26 12:42:39;;;;;;;18.70;8.00;;;;;;;17.14;46.85;102260.56;6005506;28;20030;-72
2022/03/26 12:45:35;;;;;;;19.73;8.50;;;;;;;17.32;45.87;102258.75;5995975;28;20058;-71
2022/03/26 12:48:30;;;;;;;18.40;8.27;;;;;;;17.32;46.05;102264.13;6006401;28;20282;-71
2022/03/26 12:51:29;;;;;;;20.27;9.20;;;;;;;17.49;45.99;102273.19;6005188;28;20038;-70
2022/03/26 12:54:28;;;;;;;21.52;8.35;;;;;;;17.44;45.83;102256.69;5998131;28;20509;-72
2022/03/26 12:57:23;;;;;;;20.98;8.43;;;;;;;17.41;45.51;102255.16;6006114;28;20058;-70
2022/03/26 13:00:23;;;;;;;17.65;8.50;;;;;;;17.58;45.65;102253.53;6005609;28;20031;-71
2022/03/26 13:03:18;;;;;;;22.00;8.90;;;;;;;17.75;45.27;102256.19;6006050;28;20038;-71
2022/03/26 13:06:15;;;;;;;17.23;8.03;;;;;;;17.65;45.52;102252.75;5989107;28;20043;-70
2022/03/26 13:09:11;;;;;;;21.13;8.82;;;;;;;17.60;46.22;102255.03;5965086;28;20039;-73
2022/03/26 13:12:07;;;;;;;16.80;7.30;;;;;;;17.63;47.76;102241.31;5994892;28;20399;-73
2022/03/26 13:15:02;;;;;;;16.55;7.70;;;;;;;17.83;47.32;102240.13;5982306;29;20032;-70
2022/03/26 13:18:01;;;;;;;20.80;8.35;;;;;;;17.53;47.22;102240.53;5982329;29;20027;-69
2022/03/26 13:21:03;;;;;;;24.50;8.23;;;;;;;17.38;48.08;102241.22;5981646;29;20045;-72
2022/03/26 13:24:01;;;;;;;22.35;8.38;;;;;;;17.38;48.48;102236.69;5985005;28;20055;-73
2022/03/26 13:26:59;;;;;;;21.95;8.13;;;;;;;17.12;48.53;102233.91;5981974;29;20043;-72
2022/03/26 13:30:08;;;;;;;19.70;8.18;;;;;;;16.83;50.38;102251.16;5974244;29;20078;-72
2022/03/26 13:33:05;;;;;;;19.55;8.30;;;;;;;16.65;50.71;102235.03;5974071;29;20046;-70
2022/03/26 13:36:05;;;;;;;17.67;8.07;;;;;;;16.78;50.29;102240.03;5980561;29;20027;-71
2022/03/26 13:39:13;;;;;;;23.08;8.73;;;;;;;17.12;50.13;102235.75;5980250;29;20775;-70
2022/03/26 13:42:26;;;;;;;15.98;7.57;;;;;;;17.49;49.63;102232.94;5972509;29;20397;-71